Time;durP1;ratioP1;P1;durP2;ratioP2;P2;SDS_P1;SDS_P2;PMS_P1;PMS_P2;Temp;Humidity;BMP_temperature;BMP_pressure;BME280_temperature;BME280_humidity;BME280_pressure;Samples;Min_cycle;Max_cycle;Signal;HPM_P1;HPM_P2
2023/04/11 00:00:44;;;;;;;;;;;;;;;12.54;54.86;96121.81;5035392;28;19943;-79
2023/04/11 00:03:10;;;;;;;;;;;;;;;12.50;54.81;96121.47;5035698;28;19948;-80
2023/04/11 00:05:36;;;;;;;;;;;;;;;12.50;54.05;96103.06;5035332;28;19939;-79
2023/04/11 00:08:01;;;;;;;;;;;;;;;12.50;54.53;96092.53;5035913;28;19996;-80
2023/04/11 00:10:27;;;;;;;;;;;;;;;12.49;55.08;96079.63;5035720;28;19954;-79
2023/04/11 00:12:55;;;;;;;;;;;;;;;12.47;55.21;96071.97;5035768;28;19962;-71
2023/04/11 00:15:23;;;;;;;;;;;;;;;12.44;56.32;96061.94;5035205;28;20326;-72
2023/04/11 00:17:49;;;;;;;;;;;;;;;12.43;55.95;96059.53;5035178;28;19946;-71
2023/04/11 00:20:15;;;;;;;;;;;;;;;12.40;55.89;96055.56;5035391;28;19950;-71
2023/04/11 00:22:42;;;;;;;;;;;;;;;12.36;56.35;96052.59;5035017;28;19954;-71
2023/04/11 00:25:08;;;;;;;;;;;;;;;12.35;55.91;96052.88;5036105;28;19955;-72
2023/04/11 00:27:34;;;;;;;;;;;;;;;12.32;57.03;96051.47;5035192;28;19939;-71
2023/04/11 00:30:00;;;;;;;;;;;;;;;12.30;56.05;96048.28;5034882;28;19951;-71
2023/04/11 00:32:26;;;;;;;;;;;;;;;12.28;56.41;96037.22;5034833;28;20404;-75
2023/04/11 00:34:52;;;;;;;;;;;;;;;12.28;56.61;96023.28;5034813;28;19940;-70
2023/04/11 00:37:20;;;;;;;;;;;;;;;12.26;56.83;96018.25;5017063;28;19963;-70
2023/04/11 00:39:49;;;;;;;;;;;;;;;12.26;57.42;96033.25;5017107;28;19954;-71
2023/04/11 00:42:15;;;;;;;;;;;;;;;12.24;57.63;96041.38;5017202;28;20403;-70
2023/04/11 00:44:41;;;;;;;;;;;;;;;12.22;58.50;96056.59;5035377;28;19940;-70
2023/04/11 00:47:07;;;;;;;;;;;;;;;12.22;59.34;96050.53;5035303;28;19950;-70
2023/04/11 00:49:34;;;;;;;;;;;;;;;12.21;59.04;96048.94;5035264;28;19955;-82
2023/04/11 00:52:00;;;;;;;;;;;;;;;12.19;59.38;96025.50;5034343;28;19939;-80
2023/04/11 00:54:28;;;;;;;;;;;;;;;12.21;59.97;96006.88;5034180;28;20350;-80
2023/04/11 00:56:56;;;;;;;;;;;;;;;12.21;59.48;96012.94;5033755;28;19942;-79
2023/04/11 00:59:22;;;;;;;;;;;;;;;12.24;58.72;96019.53;5033652;28;20008;-81
2023/04/11 01:01:48;;;;;;;;;;;;;;;12.23;59.07;96018.75;5033594;28;20003;-80
2023/04/11 01:04:16;;;;;;;;;;;;;;;12.22;58.97;96024.22;5034321;28;19991;-79
2023/04/11 01:06:44;;;;;;;;;;;;;;;12.22;59.03;96026.88;5033556;28;19939;-70
2023/04/11 01:09:10;;;;;;;;;;;;;;;12.22;59.56;96040.81;5034968;28;19947;-80
2023/04/11 01:11:36;;;;;;;;;;;;;;;12.21;59.83;96031.34;5034319;28;19966;-74
2023/04/11 01:14:02;;;;;;;;;;;;;;;12.22;61.24;96029.50;5033645;28;20437;-75
2023/04/11 01:16:28;;;;;;;;;;;;;;;12.22;59.58;96032.13;5034079;28;20293;-74
2023/04/11 01:18:54;;;;;;;;;;;;;;;12.22;60.96;96045.25;5033296;28;19948;-74
2023/04/11 01:21:21;;;;;;;;;;;;;;;12.21;61.07;96051.56;5033254;28;19942;-74
2023/04/11 01:23:47;;;;;;;;;;;;;;;12.19;61.15;96041.28;5033284;28;19938;-74
2023/04/11 01:26:13;;;;;;;;;;;;;;;12.18;62.02;96047.59;5033756;28;19949;-70
2023/04/11 01:28:39;;;;;;;;;;;;;;;12.17;62.83;96040.72;5015438;28;19941;-72
2023/04/11 01:31:05;;;;;;;;;;;;;;;12.15;63.75;96040.94;5033939;28;19961;-72
2023/04/11 01:33:31;;;;;;;;;;;;;;;12.12;64.57;96041.44;5033658;28;19949;-71
2023/04/11 01:35:57;;;;;;;;;;;;;;;12.07;66.35;96057.09;5032988;28;19958;-72
2023/04/11 01:38:23;;;;;;;;;;;;;;;12.03;66.93;96050.72;5033849;28;20026;-72
2023/04/11 01:40:49;;;;;;;;;;;;;;;11.97;67.75;96055.13;5033177;28;20355;-72
2023/04/11 01:43:15;;;;;;;;;;;;;;;11.92;71.40;96060.28;5033571;28;19939;-70
2023/04/11 01:45:41;;;;;;;;;;;;;;;11.83;75.01;96042.47;5033524;28;19945;-70
2023/04/11 01:48:07;;;;;;;;;;;;;;;11.76;74.72;96040.00;5033009;28;19942;-81
2023/04/11 01:50:33;;;;;;;;;;;;;;;11.66;77.04;96058.97;4992023;28;19973;-81
2023/04/11 01:52:58;;;;;;;;;;;;;;;11.61;74.57;96058.88;4991879;28;19933;-81
2023/04/11 01:55:25;;;;;;;;;;;;;;;11.57;76.61;96065.66;4991473;28;19938;-81
2023/04/11 01:57:50;;;;;;;;;;;;;;;11.52;79.28;96066.31;4992226;28;19943;-81
2023/04/11 02:00:16;;;;;;;;;;;;;;;11.48;79.64;96074.91;4991497;28;19987;-81
2023/04/11 02:02:42;;;;;;;;;;;;;;;11.44;79.24;96081.66;4993209;28;19946;-70
2023/04/11 02:05:09;;;;;;;;;;;;;;;11.38;80.08;96084.19;4995954;28;19938;-70
2023/04/11 02:07:36;;;;;;;;;;;;;;;11.34;77.87;96063.88;4995693;28;19943;-69
2023/04/11 02:10:02;;;;;;;;;;;;;;;11.27;83.12;96078.94;4995592;28;19957;-69
2023/04/11 02:12:28;;;;;;;;;;;;;;;11.20;83.49;96078.28;4996776;28;19957;-70
2023/04/11 02:14:54;;;;;;;;;;;;;;;11.14;83.18;96078.16;4995894;28;19963;-69
2023/04/11 02:17:21;;;;;;;;;;;;;;;11.09;85.00;96078.06;4995561;28;19989;-70
2023/04/11 02:19:47;;;;;;;;;;;;;;;11.05;87.03;96094.50;4995254;28;19945;-70
2023/04/11 02:22:13;;;;;;;;;;;;;;;10.97;83.86;96077.25;4995416;28;19978;-83
2023/04/11 02:24:39;;;;;;;;;;;;;;;10.90;93.63;96082.63;4995863;28;19940;-77
2023/04/11 02:27:05;;;;;;;;;;;;;;;10.83;86.67;96071.44;4999766;28;19942;-78
2023/04/11 02:29:31;;;;;;;;;;;;;;;10.77;88.75;96085.47;5037065;28;20300;-77
2023/04/11 02:31:57;;;;;;;;;;;;;;;10.73;90.23;96095.63;5036461;28;20307;-77
2023/04/11 02:34:23;;;;;;;;;;;;;;;10.72;90.04;96087.97;5036457;28;19956;-77
2023/04/11 02:36:49;;;;;;;;;;;;;;;10.69;87.89;96088.44;5036377;28;20397;-77
2023/04/11 02:39:15;;;;;;;;;;;;;;;10.66;88.99;96073.16;5036339;28;19945;-74
2023/04/11 02:41:41;;;;;;;;;;;;;;;10.60;91.34;96095.81;5036288;28;19940;-77
2023/04/11 02:44:08;;;;;;;;;;;;;;;10.50;90.56;96096.41;5036310;28;19944;-70
2023/04/11 02:46:34;;;;;;;;;;;;;;;10.42;87.32;96082.84;5036201;28;19949;-70
2023/04/11 02:49:00;;;;;;;;;;;;;;;10.33;88.40;96087.56;5036811;28;19939;-70
2023/04/11 02:51:27;;;;;;;;;;;;;;;10.23;92.26;96122.19;5036640;28;19958;-69
2023/04/11 02:53:53;;;;;;;;;;;;;;;10.18;81.39;96056.53;5036503;28;19939;-69
2023/04/11 02:56:19;;;;;;;;;;;;;;;10.07;87.77;96084.28;5036726;28;19949;-69
2023/04/11 02:58:45;;;;;;;;;;;;;;;9.95;83.82;96034.50;5036038;28;20282;-69
2023/04/11 03:01:13;;;;;;;;;;;;;;;9.84;90.27;96090.25;5036868;28;19944;-70
2023/04/11 03:03:39;;;;;;;;;;;;;;;9.81;90.00;96095.16;5035969;28;19947;-70
2023/04/11 03:06:06;;;;;;;;;;;;;;;9.83;89.25;96077.38;5036722;28;20401;-70
2023/04/11 03:08:32;;;;;;;;;;;;;;;9.79;90.51;96090.13;5018188;28;19940;-70
2023/04/11 03:10:58;;;;;;;;;;;;;;;9.72;87.94;96082.34;5036297;28;20310;-70
2023/04/11 03:13:24;;;;;;;;;;;;;;;9.65;92.00;96109.63;5036361;28;19971;-70
2023/04/11 03:15:50;;;;;;;;;;;;;;;9.59;88.71;96076.47;5035106;28;19966;-70
2023/04/11 03:18:17;;;;;;;;;;;;;;;9.53;89.81;96080.75;5036049;28;19936;-71
2023/04/11 03:20:43;;;;;;;;;;;;;;;9.50;91.19;96087.25;5035707;28;19945;-70
2023/04/11 03:23:09;;;;;;;;;;;;;;;9.47;93.60;96081.63;5018159;28;19942;-69
2023/04/11 03:25:37;;;;;;;;;;;;;;;9.47;92.49;96069.38;5035682;28;20387;-69
2023/04/11 03:28:03;;;;;;;;;;;;;;;9.50;91.71;96068.13;5036064;28;19939;-69
2023/04/11 03:30:29;;;;;;;;;;;;;;;9.47;89.60;96065.94;5035925;28;19982;-70
2023/04/11 03:32:59;;;;;;;;;;;;;;;9.40;96.15;96086.16;5035750;28;19936;-69
2023/04/11 03:35:26;;;;;;;;;;;;;;;9.36;91.34;96057.00;5036171;28;19934;-76
2023/04/11 03:37:52;;;;;;;;;;;;;;;9.37;93.50;96071.69;5035343;28;20426;-73
2023/04/11 03:40:18;;;;;;;;;;;;;;;9.31;90.96;96062.91;5035232;28;19993;-73
2023/04/11 03:42:47;;;;;;;;;;;;;;;9.34;92.28;96085.22;5035190;28;19939;-73
2023/04/11 03:45:13;;;;;;;;;;;;;;;9.40;91.64;96092.19;5018001;28;20308;-73
2023/04/11 03:47:39;;;;;;;;;;;;;;;9.45;91.53;96092.34;5035073;28;19938;-73
2023/04/11 03:50:08;;;;;;;;;;;;;;;9.50;91.16;96102.16;5017946;28;19967;-73
2023/04/11 03:52:34;;;;;;;;;;;;;;;9.54;90.56;96098.09;5035210;28;20289;-82
2023/04/11 03:55:01;;;;;;;;;;;;;;;9.58;90.17;96099.25;5035180;28;19963;-73
2023/04/11 03:57:27;;;;;;;;;;;;;;;9.62;90.75;96099.59;5034966;28;19951;-71
2023/04/11 03:59:54;;;;;;;;;;;;;;;9.64;91.53;96103.59;5035419;28;19945;-72
2023/04/11 04:02:20;;;;;;;;;;;;;;;9.66;91.16;96111.22;5034889;28;20304;-72
2023/04/11 04:04:47;;;;;;;;;;;;;;;9.66;91.85;96106.78;5017971;28;19952;-71
2023/04/11 04:07:13;;;;;;;;;;;;;;;9.66;90.85;96095.50;5035633;28;20287;-71
2023/04/11 04:09:40;;;;;;;;;;;;;;;9.66;90.67;96096.31;5034840;28;19952;-71
2023/04/11 04:12:06;;;;;;;;;;;;;;;9.66;91.58;96091.09;5035239;28;19945;-76
2023/04/11 04:14:32;;;;;;;;;;;;;;;9.64;90.77;96093.13;5034622;28;19980;-82
2023/04/11 04:16:58;;;;;;;;;;;;;;;9.60;91.19;96089.34;5034880;28;20343;-81
2023/04/11 04:19:24;;;;;;;;;;;;;;;9.53;90.30;96089.44;5034513;28;20375;-82
2023/04/11 04:21:49;;;;;;;;;;;;;;;9.52;91.77;96118.44;5034536;28;19986;-81
2023/04/11 04:24:15;;;;;;;;;;;;;;;9.49;91.26;96132.78;5035209;28;20272;-81
2023/04/11 04:26:42;;;;;;;;;;;;;;;9.48;93.70;96144.25;5034592;28;19941;-81
2023/04/11 04:29:08;;;;;;;;;;;;;;;9.39;96.11;96142.16;5035407;28;19964;-69
2023/04/11 04:31:35;;;;;;;;;;;;;;;9.25;96.33;96141.47;5034285;28;19956;-70
2023/04/11 04:34:07;;;;;;;;;;;;;;;9.13;92.53;96129.13;5035164;28;19939;-76
2023/04/11 04:36:44;;;;;;;;;;;;;;;9.03;91.60;96123.56;5034893;28;19959;-77
2023/04/11 04:39:16;;;;;;;;;;;;;;;8.90;91.43;96139.38;5034734;28;19940;-76
2023/04/11 04:41:48;;;;;;;;;;;;;;;8.82;91.00;96157.94;5034344;28;19936;-78
2023/04/11 04:44:14;;;;;;;;;;;;;;;8.74;94.92;96166.88;5034084;28;20403;-76
2023/04/11 04:46:40;;;;;;;;;;;;;;;8.61;94.07;96172.16;5034012;28;19964;-76
2023/04/11 04:49:07;;;;;;;;;;;;;;;8.53;93.92;96183.69;5034293;28;19950;-77
2023/04/11 04:51:33;;;;;;;;;;;;;;;8.45;96.36;96192.59;5033954;28;19960;-80
2023/04/11 04:53:59;;;;;;;;;;;;;;;8.33;95.37;96168.91;5034871;28;20402;-79
2023/04/11 04:56:29;;;;;;;;;;;;;;;8.24;95.24;96175.38;5034188;28;19932;-80
2023/04/11 04:58:55;;;;;;;;;;;;;;;8.19;93.92;96177.00;5034202;28;19949;-80
2023/04/11 05:01:25;;;;;;;;;;;;;;;8.12;95.52;96187.50;5034370;28;20298;-81
2023/04/11 05:03:58;;;;;;;;;;;;;;;8.05;94.49;96187.53;5034056;28;19948;-80
2023/04/11 05:06:31;;;;;;;;;;;;;;;8.01;95.51;96214.28;5034396;28;19939;-81
2023/04/11 05:08:58;;;;;;;;;;;;;;;7.97;95.27;96231.38;5034000;28;19945;-70
2023/04/11 05:11:27;;;;;;;;;;;;;;;7.90;93.98;96220.94;5033599;28;19954;-80
2023/04/11 05:13:53;;;;;;;;;;;;;;;7.84;95.50;96229.59;5033624;28;19977;-80
2023/04/11 05:16:19;;;;;;;;;;;;;;;7.77;97.40;96252.28;5033740;28;20040;-80
2023/04/11 05:18:45;;;;;;;;;;;;;;;7.70;99.79;96239.25;5034024;28;19936;-80
2023/04/11 05:21:11;;;;;;;;;;;;;;;7.63;98.55;96244.50;5034278;28;19937;-79
2023/04/11 05:23:38;;;;;;;;;;;;;;;7.58;98.23;96241.72;5033687;28;19939;-79
2023/04/11 05:26:04;;;;;;;;;;;;;;;7.56;99.43;96253.34;5034279;28;19932;-75
2023/04/11 05:28:33;;;;;;;;;;;;;;;7.56;100.00;96263.78;5016596;28;19952;-69
2023/04/11 05:30:58;;;;;;;;;;;;;;;7.55;97.02;96257.75;5033641;28;19964;-69
2023/04/11 05:33:25;;;;;;;;;;;;;;;7.56;96.81;96254.16;5033401;28;19939;-69
2023/04/11 05:35:51;;;;;;;;;;;;;;;7.55;91.33;96229.06;5033293;28;19985;-70
2023/04/11 05:38:18;;;;;;;;;;;;;;;7.49;90.06;96232.47;5033365;28;19945;-69
2023/04/11 05:40:43;;;;;;;;;;;;;;;7.38;90.35;96236.50;5033209;28;19941;-69
2023/04/11 05:43:13;;;;;;;;;;;;;;;7.29;88.37;96217.66;5033760;28;19940;-73
2023/04/11 05:45:40;;;;;;;;;;;;;;;7.23;90.61;96241.94;5033899;28;20013;-70
2023/04/11 05:48:06;;;;;;;;;;;;;;;7.19;90.56;96238.13;4999813;28;19945;-73
2023/04/11 05:50:33;;;;;;;;;;;;;;;7.13;91.39;96235.53;5032999;28;19966;-73
2023/04/11 05:52:58;;;;;;;;;;;;;;;7.08;90.43;96229.13;5033090;28;19938;-73
2023/04/11 05:55:24;;;;;;;;;;;;;;;7.07;89.65;96227.50;5033116;28;20002;-72
2023/04/11 05:57:50;;;;;;;;;;;;;;;7.03;89.82;96213.25;5033466;28;19946;-73
2023/04/11 06:00:17;;;;;;;;;;;;;;;7.04;88.73;96225.31;5033280;28;19992;-72
2023/04/11 06:02:43;;;;;;;;;;;;;;;7.07;89.33;96244.94;5033486;28;20279;-69
2023/04/11 06:05:10;;;;;;;;;;;;;;;7.10;89.46;96242.75;5032856;28;19940;-69
2023/04/11 06:07:36;;;;;;;;;;;;;;;7.16;89.30;96253.38;5032879;28;19942;-69
2023/04/11 06:10:02;;;;;;;;;;;;;;;7.18;89.67;96260.00;5033283;28;19952;-69
2023/04/11 06:12:28;;;;;;;;;;;;;;;7.22;88.25;96248.16;5032923;28;19965;-69
2023/04/11 06:14:54;;;;;;;;;;;;;;;7.29;88.81;96261.22;5033390;28;19968;-69
2023/04/11 06:17:20;;;;;;;;;;;;;;;7.38;89.57;96267.03;5032858;28;19998;-69
2023/04/11 06:19:46;;;;;;;;;;;;;;;7.45;89.45;96266.00;5033206;28;19950;-70
2023/04/11 06:22:12;;;;;;;;;;;;;;;7.51;88.67;96275.63;5032852;28;19947;-70
2023/04/11 06:24:38;;;;;;;;;;;;;;;7.57;89.02;96281.06;5033194;28;19941;-72
2023/04/11 06:27:04;;;;;;;;;;;;;;;7.58;88.88;96278.25;5032739;28;20306;-71
2023/04/11 06:29:30;;;;;;;;;;;;;;;7.60;87.57;96265.81;5032649;28;19937;-72
2023/04/11 06:31:56;;;;;;;;;;;;;;;7.56;88.75;96284.66;5032671;28;19962;-71
2023/04/11 06:34:22;;;;;;;;;;;;;;;7.54;91.48;96300.53;5033662;28;19944;-71
2023/04/11 06:36:48;;;;;;;;;;;;;;;7.50;90.50;96296.72;5033596;28;19957;-72
2023/04/11 06:39:17;;;;;;;;;;;;;;;7.52;90.36;96319.00;5032659;28;19955;-75
2023/04/11 06:41:45;;;;;;;;;;;;;;;7.58;90.52;96312.19;5032613;28;20292;-72
2023/04/11 06:44:11;;;;;;;;;;;;;;;7.65;90.24;96323.41;5032537;28;19961;-71
2023/04/11 06:46:37;;;;;;;;;;;;;;;7.70;91.53;96336.63;5032421;28;19982;-71
2023/04/11 06:49:06;;;;;;;;;;;;;;;7.73;91.02;96323.19;5033439;28;20404;-72
2023/04/11 06:51:32;;;;;;;;;;;;;;;7.72;91.70;96326.00;5036332;28;19965;-71
2023/04/11 06:53:58;;;;;;;;;;;;;;;7.74;90.81;96308.31;5036728;28;19943;-71
2023/04/11 06:56:24;;;;;;;;;;;;;;;7.71;89.18;96298.31;5037270;28;20005;-75
2023/04/11 06:58:50;;;;;;;;;;;;;;;7.67;89.71;96304.94;5036643;28;19940;-69
2023/04/11 07:01:19;;;;;;;;;;;;;;;7.63;91.49;96314.97;5036969;28;19940;-76
2023/04/11 07:03:48;;;;;;;;;;;;;;;7.62;92.48;96326.44;5036756;28;19938;-76
2023/04/11 07:06:15;;;;;;;;;;;;;;;7.61;90.73;96316.19;5037076;28;20303;-75
2023/04/11 07:08:41;;;;;;;;;;;;;;;7.61;89.97;96318.78;5036487;28;19944;-75
2023/04/11 07:11:07;;;;;;;;;;;;;;;7.60;90.43;96304.13;5036420;28;19957;-76
2023/04/11 07:13:32;;;;;;;;;;;;;;;7.61;91.05;96314.38;5036870;28;19974;-76
2023/04/11 07:15:58;;;;;;;;;;;;;;;7.69;91.20;96336.88;5036963;28;19942;-79
2023/04/11 07:18:26;;;;;;;;;;;;;;;7.75;91.34;96340.44;5036363;28;19938;-70
2023/04/11 07:20:52;;;;;;;;;;;;;;;7.76;91.85;96347.28;5018446;28;19944;-70
2023/04/11 07:23:18;;;;;;;;;;;;;;;7.81;90.51;96342.25;5036290;28;19937;-70
2023/04/11 07:25:44;;;;;;;;;;;;;;;7.86;92.38;96345.88;5036153;28;20276;-70
2023/04/11 07:28:10;;;;;;;;;;;;;;;7.95;90.39;96336.00;5036201;28;20388;-69
2023/04/11 07:30:36;;;;;;;;;;;;;;;7.99;89.64;96328.59;5036320;28;19957;-70
2023/04/11 07:33:02;;;;;;;;;;;;;;;8.04;90.37;96337.41;5036107;28;19940;-70
2023/04/11 07:35:29;;;;;;;;;;;;;;;8.10;89.26;96333.16;5036876;28;19938;-81
2023/04/11 07:37:56;;;;;;;;;;;;;;;8.14;86.38;96303.03;5035956;28;19956;-70
2023/04/11 07:40:22;;;;;;;;;;;;;;;8.19;86.75;96310.22;5037045;28;19941;-70
2023/04/11 07:42:48;;;;;;;;;;;;;;;8.25;84.95;96299.78;5036236;28;20401;-70
2023/04/11 07:45:13;;;;;;;;;;;;;;;8.36;86.01;96315.81;5035889;28;19942;-70
2023/04/11 07:47:39;;;;;;;;;;;;;;;8.49;86.91;96329.66;5036085;28;19984;-70
2023/04/11 07:50:06;;;;;;;;;;;;;;;8.58;84.81;96316.38;5035787;28;19992;-70
2023/04/11 07:52:32;;;;;;;;;;;;;;;8.60;84.82;96332.63;5035770;28;20384;-70
2023/04/11 07:54:58;;;;;;;;;;;;;;;8.60;83.16;96303.88;5035731;28;20381;-76
2023/04/11 07:57:23;;;;;;;;;;;;;;;8.59;83.16;96297.88;5035803;28;19951;-76
2023/04/11 07:59:49;;;;;;;;;;;;;;;8.61;83.48;96302.88;5035588;28;19951;-76
2023/04/11 08:02:15;;;;;;;;;;;;;;;8.59;81.73;96310.13;5035828;28;20364;-76
2023/04/11 08:04:41;;;;;;;;;;;;;;;8.57;83.48;96333.88;5035426;28;20382;-76
2023/04/11 08:07:07;;;;;;;;;;;;;;;8.53;82.71;96317.78;5035486;28;19942;-76
2023/04/11 08:09:33;;;;;;;;;;;;;;;8.49;82.66;96321.03;5035363;28;19943;-77
2023/04/11 08:12:00;;;;;;;;;;;;;;;8.42;81.21;96313.22;5036081;28;19973;-73
2023/04/11 08:14:26;;;;;;;;;;;;;;;8.40;82.46;96317.81;5035110;28;20430;-81
2023/04/11 08:16:52;;;;;;;;;;;;;;;8.43;82.50;96334.91;5035277;28;19939;-81
2023/04/11 08:19:18;;;;;;;;;;;;;;;8.47;82.73;96328.28;5035200;28;19946;-81
2023/04/11 08:21:44;;;;;;;;;;;;;;;8.54;81.31;96314.16;5035345;28;19942;-82
2023/04/11 08:24:10;;;;;;;;;;;;;;;8.63;81.62;96319.97;5035122;28;19939;-81
2023/04/11 08:26:36;;;;;;;;;;;;;;;8.72;81.55;96313.47;5035009;28;20357;-82
2023/04/11 08:29:02;;;;;;;;;;;;;;;8.80;81.20;96322.06;5035864;28;19948;-75
2023/04/11 08:31:28;;;;;;;;;;;;;;;8.86;80.50;96316.00;5034916;28;20406;-71
2023/04/11 08:33:54;;;;;;;;;;;;;;;8.96;79.22;96308.50;5034953;28;19949;-81
2023/04/11 08:36:20;;;;;;;;;;;;;;;9.08;78.96;96298.97;5035213;28;19957;-81
2023/04/11 08:38:46;;;;;;;;;;;;;;;9.24;79.26;96308.13;5035053;28;19959;-81
2023/04/11 08:41:13;;;;;;;;;;;;;;;9.44;77.11;96281.78;5034834;28;20422;-81
2023/04/11 08:43:39;;;;;;;;;;;;;;;9.60;78.28;96300.63;5034603;28;19947;-81
2023/04/11 08:46:08;;;;;;;;;;;;;;;9.74;76.79;96287.19;5034715;28;19944;-81
2023/04/11 08:48:34;;;;;;;;;;;;;;;9.90;73.34;96253.56;5034826;28;19940;-70
2023/04/11 08:51:00;;;;;;;;;;;;;;;9.89;75.15;96268.50;5035103;28;20008;-72
2023/04/11 08:53:28;;;;;;;;;;;;;;;10.04;73.41;96260.28;5034556;28;19950;-71
2023/04/11 08:55:53;;;;;;;;;;;;;;;10.19;73.39;96252.03;5034466;28;19945;-72
2023/04/11 08:58:19;;;;;;;;;;;;;;;10.40;72.59;96247.41;5034447;28;19944;-72
2023/04/11 09:00:45;;;;;;;;;;;;;;;10.53;69.19;96213.91;5034658;28;19948;-72
2023/04/11 09:03:11;;;;;;;;;;;;;;;10.64;69.14;96204.50;5034137;28;19944;-71
2023/04/11 09:05:39;;;;;;;;;;;;;;;10.83;68.64;96201.81;5034348;28;19941;-77
2023/04/11 09:08:05;;;;;;;;;;;;;;;10.94;64.68;96172.97;5034340;28;20404;-71
2023/04/11 09:10:31;;;;;;;;;;;;;;;10.95;65.49;96189.50;5034299;28;20429;-72
2023/04/11 09:12:57;;;;;;;;;;;;;;;10.99;67.07;96211.66;5033065;28;19973;-72
2023/04/11 09:15:25;;;;;;;;;;;;;;;11.14;66.82;96222.50;5034739;28;19949;-72
2023/04/11 09:17:51;;;;;;;;;;;;;;;11.31;63.16;96201.63;5034030;28;19954;-71
2023/04/11 09:20:16;;;;;;;;;;;;;;;11.20;61.52;96199.81;5034067;28;19943;-72
2023/04/11 09:22:42;;;;;;;;;;;;;;;11.18;65.17;96239.41;5034478;28;19948;-72
2023/04/11 09:25:08;;;;;;;;;;;;;;;11.22;65.57;96231.09;5034603;28;20344;-71
2023/04/11 09:27:34;;;;;;;;;;;;;;;11.31;63.05;96211.34;5033926;28;20319;-71
2023/04/11 09:30:01;;;;;;;;;;;;;;;11.30;62.74;96218.41;5034437;28;19939;-71
2023/04/11 09:32:33;;;;;;;;;;;;;;;11.23;64.16;96303.53;5033865;28;19955;-70
2023/04/11 09:35:23;;;;;;;;;;;;;;;11.25;63.89;96325.13;5033879;28;19941;-71
2023/04/11 09:37:57;;;;;;;;;;;;;;;11.21;64.35;96323.97;5028461;28;19981;-71
2023/04/11 09:40:24;;;;;;;;;;;;;;;11.13;65.19;96320.66;5033994;28;19944;-71
2023/04/11 09:42:58;;;;;;;;;;;;;;;10.98;64.00;96328.09;5033754;28;19945;-72
2023/04/11 09:45:25;;;;;;;;;;;;;;;10.86;64.59;96327.28;5033814;28;19950;-71
2023/04/11 09:47:54;;;;;;;;;;;;;;;10.89;65.89;96332.88;5034051;28;19942;-70
2023/04/11 09:50:20;;;;;;;;;;;;;;;10.94;66.63;96335.66;5034662;28;20389;-70
2023/04/11 09:52:47;;;;;;;;;;;;;;;10.96;65.47;96336.22;5034377;28;20423;-70
2023/04/11 09:55:13;;;;;;;;;;;;;;;10.97;67.42;96348.31;5016827;28;20282;-71
2023/04/11 09:57:44;;;;;;;;;;;;;;;11.04;64.88;96334.28;5016014;28;19936;-71
2023/04/11 10:00:17;;;;;;;;;;;;;;;11.00;65.36;96339.19;5034464;28;19935;-70
2023/04/11 10:02:44;;;;;;;;;;;;;;;10.88;64.51;96336.53;5034188;28;19935;-74
2023/04/11 10:05:12;;;;;;;;;;;;;;;10.83;65.84;96341.63;5033553;28;19937;-70
2023/04/11 10:07:51;;;;;;;;;;;;;;;10.80;65.74;96351.78;5015825;28;19951;-71
2023/04/11 10:10:26;;;;;;;;;;;;;;;10.91;67.14;96357.06;5016490;28;19952;-71
2023/04/11 10:12:52;;;;;;;;;;;;;;;11.04;66.45;96361.34;5033668;28;19991;-71
2023/04/11 10:15:18;;;;;;;;;;;;;;;11.17;67.14;96369.03;5034326;28;20285;-71
2023/04/11 10:18:02;;;;;;;;;;;;;;;11.22;64.97;96354.44;5033369;28;19939;-71
2023/04/11 10:20:37;;;;;;;;;;;;;;;11.26;65.54;96352.97;5033465;28;19947;-74
2023/04/11 10:23:04;;;;;;;;;;;;;;;11.18;62.80;96341.75;5015750;28;20312;-71
2023/04/11 10:25:31;;;;;;;;;;;;;;;11.13;64.45;96357.38;5019246;28;19949;-72
2023/04/11 10:28:02;;;;;;;;;;;;;;;11.03;64.62;96364.19;5037838;28;19943;-71
2023/04/11 10:30:40;;;;;;;;;;;;;;;10.91;64.55;96361.53;5037812;28;19939;-70
2023/04/11 10:33:10;;;;;;;;;;;;;;;10.79;68.05;96381.66;5037510;28;19967;-71
2023/04/11 10:35:54;;;;;;;;;;;;;;;10.84;67.25;96379.19;5037023;28;19941;-71
2023/04/11 10:38:45;;;;;;;;;;;;;;;10.92;65.35;96360.50;5037461;28;19959;-82
2023/04/11 10:41:24;;;;;;;;;;;;;;;11.02;64.54;96346.84;5016463;28;19939;-71
2023/04/11 10:43:50;;;;;;;;;;;;;;;11.06;64.55;96345.38;5019121;28;19971;-71
2023/04/11 10:46:17;;;;;;;;;;;;;;;11.14;63.01;96345.84;5035974;28;19947;-71
2023/04/11 10:48:59;;;;;;;;;;;;;;;11.13;62.10;96341.66;5036876;28;19945;-71
2023/04/11 10:51:25;;;;;;;;;;;;;;;11.13;61.69;96338.22;5036757;28;20327;-71
2023/04/11 10:53:51;;;;;;;;;;;;;;;11.10;62.16;96352.56;5036722;28;19952;-71
2023/04/11 10:56:36;;;;;;;;;;;;;;;11.03;62.35;96348.47;5037267;28;19935;-71
2023/04/11 10:59:02;;;;;;;;;;;;;;;10.99;63.35;96355.97;5037070;28;20283;-71
2023/04/11 11:01:28;;;;;;;;;;;;;;;10.97;63.95;96366.69;5037462;28;19947;-70
2023/04/11 11:03:55;;;;;;;;;;;;;;;10.96;63.17;96361.63;5036612;28;20308;-70
2023/04/11 11:06:21;;;;;;;;;;;;;;;11.00;63.33;96359.38;5036574;28;19948;-70
2023/04/11 11:08:47;;;;;;;;;;;;;;;11.04;60.65;96339.53;5036639;28;20406;-71
2023/04/11 11:11:15;;;;;;;;;;;;;;;11.20;63.49;96359.13;5036499;28;19961;-71
2023/04/11 11:13:43;;;;;;;;;;;;;;;11.43;63.30;96356.56;5036342;28;19972;-71
2023/04/11 11:16:13;;;;;;;;;;;;;;;11.70;61.90;96345.66;5036436;28;19951;-74
2023/04/11 11:18:39;;;;;;;;;;;;;;;11.74;61.36;96352.03;5036870;28;19935;-70
2023/04/11 11:21:05;;;;;;;;;;;;;;;11.70;59.29;96350.91;5036327;28;19958;-71
2023/04/11 11:23:31;;;;;;;;;;;;;;;11.74;60.55;96358.09;5036834;28;20420;-72
2023/04/11 11:25:58;;;;;;;;;;;;;;;11.78;60.73;96351.34;5035794;28;19939;-71
2023/04/11 11:28:24;;;;;;;;;;;;;;;11.73;58.83;96340.72;5035845;28;19933;-71
2023/04/11 11:30:51;;;;;;;;;;;;;;;11.73;59.92;96363.56;5035643;28;19950;-71
2023/04/11 11:33:19;;;;;;;;;;;;;;;11.64;58.47;96352.59;5035707;28;19955;-74
2023/04/11 11:36:01;;;;;;;;;;;;;;;11.60;56.99;96340.94;5034660;28;19954;-78
2023/04/11 11:38:28;;;;;;;;;;;;;;;11.70;57.39;96349.06;5036212;28;19966;-78
2023/04/11 11:40:54;;;;;;;;;;;;;;;11.82;56.69;96343.00;5035930;28;19935;-79
2023/04/11 11:43:20;;;;;;;;;;;;;;;11.96;55.40;96347.03;5035885;28;20307;-79
2023/04/11 11:45:46;;;;;;;;;;;;;;;12.07;52.07;96340.19;5035855;28;19963;-79
2023/04/11 11:48:22;;;;;;;;;;;;;;;12.08;53.31;96355.72;5035788;28;19945;-79
2023/04/11 11:50:56;;;;;;;;;;;;;;;12.08;54.71;96375.97;5035067;28;19960;-71
2023/04/11 11:53:22;;;;;;;;;;;;;;;12.13;55.84;96370.81;5035783;28;19944;-71
2023/04/11 11:55:48;;;;;;;;;;;;;;;12.25;55.02;96358.47;5035613;28;19942;-79
2023/04/11 11:58:15;;;;;;;;;;;;;;;12.43;51.93;96344.38;5036365;28;20403;-79
2023/04/11 12:00:41;;;;;;;;;;;;;;;12.54;50.48;96345.38;5035578;28;19940;-80
2023/04/11 12:03:10;;;;;;;;;;;;;;;12.54;50.07;96364.59;5017800;28;19936;-79
2023/04/11 12:05:36;;;;;;;;;;;;;;;12.56;50.53;96370.44;5035385;28;20318;-79
2023/04/11 12:08:03;;;;;;;;;;;;;;;12.59;49.90;96363.91;5018528;28;19942;-79
2023/04/11 12:10:44;;;;;;;;;;;;;;;12.65;49.76;96362.19;5035546;28;19945;-72
2023/04/11 12:13:11;;;;;;;;;;;;;;;12.81;49.22;96361.44;5017434;28;20357;-72
2023/04/11 12:15:37;;;;;;;;;;;;;;;12.90;51.88;96364.50;5036055;28;20412;-72
2023/04/11 12:18:04;;;;;;;;;;;;;;;12.97;52.04;96370.41;5035146;28;19986;-71
2023/04/11 12:20:30;;;;;;;;;;;;;;;12.92;51.07;96362.44;5035071;28;19946;-72
2023/04/11 12:22:56;;;;;;;;;;;;;;;12.94;50.78;96363.00;5035317;28;19943;-71
2023/04/11 12:25:24;;;;;;;;;;;;;;;12.91;50.19;96364.25;5035815;28;19941;-72
2023/04/11 12:27:50;;;;;;;;;;;;;;;12.96;51.61;96385.41;5035769;28;20320;-73
2023/04/11 12:30:16;;;;;;;;;;;;;;;12.95;51.58;96383.00;5018038;28;19942;-81
2023/04/11 12:32:42;;;;;;;;;;;;;;;13.03;50.44;96377.38;5034715;28;20000;-75
2023/04/11 12:35:09;;;;;;;;;;;;;;;13.09;51.50;96376.44;5035475;28;19948;-75
2023/04/11 12:37:35;;;;;;;;;;;;;;;13.12;50.21;96369.91;5016802;28;20354;-75
2023/04/11 12:40:05;;;;;;;;;;;;;;;13.09;48.45;96368.53;5035391;28;19969;-75
2023/04/11 12:42:31;;;;;;;;;;;;;;;13.08;48.50;96366.13;5035272;28;19934;-76
2023/04/11 12:44:57;;;;;;;;;;;;;;;13.04;47.66;96373.72;5017037;28;20300;-75
2023/04/11 12:47:23;;;;;;;;;;;;;;;13.04;50.08;96379.00;5034454;28;19981;-72
2023/04/11 12:49:49;;;;;;;;;;;;;;;13.11;49.78;96379.63;5001445;28;20366;-71